Time;durP1;ratioP1;P1;durP2;ratioP2;P2;SDS_P1;SDS_P2;PMS_P1;PMS_P2;Temp;Humidity;BMP_temperature;BMP_pressure;BME280_temperature;BME280_humidity;BME280_pressure;Samples;Min_cycle;Max_cycle;Signal;HPM_P1;HPM_P2
2021/11/23 00:02:17;;;;;;;6.22;3.25;;;;;;;;;;5058378;28;20060;-65
2021/11/23 00:04:43;;;;;;;9.77;3.80;;;;;;;;;;5075961;28;20023;-65
2021/11/23 00:07:09;;;;;;;5.50;3.38;;;;;;;;;;5075885;28;20103;-65
2021/11/23 00:09:35;;;;;;;8.15;3.83;;;;;;;;;;5075564;28;20044;-66
2021/11/23 00:12:01;;;;;;;5.53;3.17;;;;;;;;;;5075858;28;20467;-66
2021/11/23 00:14:27;;;;;;;6.45;3.22;;;;;;;;;;5076108;28;20067;-66
2021/11/23 00:16:53;;;;;;;9.05;3.17;;;;;;;;;;5074761;28;20086;-66
2021/11/23 00:19:19;;;;;;;7.65;3.63;;;;;;;;;;5075614;28;20099;-66
2021/11/23 00:21:45;;;;;;;9.80;3.70;;;;;;;;;;5076068;28;20040;-64
2021/11/23 00:24:11;;;;;;;6.45;3.15;;;;;;;;;;5057674;28;20036;-67
2021/11/23 00:26:37;;;;;;;8.70;3.50;;;;;;;;;;5075585;28;20111;-66
2021/11/23 00:29:03;;;;;;;9.75;3.20;;;;;;;;;;5057546;28;20024;-66
2021/11/23 00:31:29;;;;;;;8.63;3.65;;;;;;;;;;5057730;28;20021;-65
2021/11/23 00:33:55;;;;;;;8.18;3.55;;;;;;;;;;5056323;28;20097;-65
2021/11/23 00:36:21;;;;;;;7.55;3.40;;;;;;;;;;5075417;28;20024;-65
2021/11/23 00:38:47;;;;;;;7.55;3.38;;;;;;;;;;5075187;28;20035;-67
2021/11/23 00:41:16;;;;;;;6.50;3.25;;;;;;;;;;5075456;28;20020;-65
2021/11/23 00:43:42;;;;;;;17.05;3.80;;;;;;;;;;5075178;28;20533;-66
2021/11/23 00:46:08;;;;;;;16.65;3.40;;;;;;;;;;5057459;28;20020;-65
2021/11/23 00:48:34;;;;;;;6.90;3.30;;;;;;;;;;5057230;28;20111;-64
2021/11/23 00:51:00;;;;;;;10.63;3.60;;;;;;;;;;5074494;28;20044;-66
2021/11/23 00:53:26;;;;;;;8.13;3.30;;;;;;;;;;5075298;28;20039;-67
2021/11/23 00:55:53;;;;;;;9.48;3.10;;;;;;;;;;5075075;28;20540;-66
2021/11/23 00:58:19;;;;;;;6.35;3.17;;;;;;;;;;5057037;28;20341;-66
2021/11/23 01:00:44;;;;;;;5.28;3.17;;;;;;;;;;5075066;28;20457;-66
2021/11/23 01:03:12;;;;;;;8.65;2.88;;;;;;;;;;5074822;28;20066;-66
2021/11/23 01:05:38;;;;;;;8.65;2.85;;;;;;;;;;5074743;28;20414;-66
2021/11/23 01:08:05;;;;;;;6.78;3.22;;;;;;;;;;5073636;28;20455;-66
2021/11/23 01:10:31;;;;;;;4.50;2.80;;;;;;;;;;5074647;28;20414;-65
2021/11/23 01:12:57;;;;;;;4.25;2.80;;;;;;;;;;5074517;28;20107;-66
2021/11/23 01:15:23;;;;;;;5.72;2.75;;;;;;;;;;5075044;28;20107;-65
2021/11/23 01:17:49;;;;;;;5.88;3.28;;;;;;;;;;5074536;28;20044;-66
2021/11/23 01:20:15;;;;;;;5.18;3.20;;;;;;;;;;5074630;28;20052;-65
2021/11/23 01:22:43;;;;;;;5.22;2.95;;;;;;;;;;5073284;28;20078;-66
2021/11/23 01:25:09;;;;;;;6.00;2.65;;;;;;;;;;5074369;28;20068;-65
2021/11/23 01:27:35;;;;;;;7.25;2.60;;;;;;;;;;5056570;28;20036;-66
2021/11/23 01:30:02;;;;;;;6.32;3.00;;;;;;;;;;5074043;28;20563;-66
2021/11/23 01:32:28;;;;;;;5.03;2.78;;;;;;;;;;5074652;28;20049;-65
2021/11/23 01:34:54;;;;;;;3.47;2.40;;;;;;;;;;5074526;28;20055;-66
2021/11/23 01:37:20;;;;;;;6.22;2.75;;;;;;;;;;5074336;28;20383;-65
2021/11/23 01:39:46;;;;;;;9.90;3.65;;;;;;;;;;5073132;28;20488;-65
2021/11/23 01:42:12;;;;;;;7.22;2.90;;;;;;;;;;5074430;28;20069;-66
2021/11/23 01:44:38;;;;;;;7.88;3.25;;;;;;;;;;5074291;28;20339;-66
2021/11/23 01:47:04;;;;;;;7.97;2.90;;;;;;;;;;5073911;28;20017;-66
2021/11/23 01:49:30;;;;;;;7.57;2.50;;;;;;;;;;5073899;28;20455;-65
2021/11/23 01:51:56;;;;;;;12.05;2.80;;;;;;;;;;5073908;28;20025;-66
2021/11/23 01:54:22;;;;;;;3.47;2.38;;;;;;;;;;5057251;28;20024;-67
2021/11/23 01:56:48;;;;;;;12.25;2.95;;;;;;;;;;5062100;28;20033;-66
2021/11/23 01:59:14;;;;;;;5.18;2.40;;;;;;;;;;5054076;28;20021;-66
2021/11/23 02:01:40;;;;;;;5.90;2.50;;;;;;;;;;5054038;28;20021;-65
2021/11/23 02:04:06;;;;;;;6.28;2.38;;;;;;;;;;5053736;28;20025;-66
2021/11/23 02:06:33;;;;;;;3.08;2.45;;;;;;;;;;5053829;28;20017;-65
2021/11/23 02:08:59;;;;;;;5.15;3.03;;;;;;;;;;5053656;28;20025;-66
2021/11/23 02:11:26;;;;;;;11.10;2.97;;;;;;;;;;5054011;28;20048;-65
2021/11/23 02:13:52;;;;;;;5.20;2.53;;;;;;;;;;5053676;28;20095;-65
2021/11/23 02:16:18;;;;;;;5.40;2.60;;;;;;;;;;5052968;28;20087;-66
2021/11/23 02:18:44;;;;;;;8.23;2.42;;;;;;;;;;5053716;28;20059;-66
2021/11/23 02:21:10;;;;;;;6.82;2.53;;;;;;;;;;5053150;28;20032;-66
2021/11/23 02:23:36;;;;;;;11.95;2.63;;;;;;;;;;5053663;28;20017;-66
2021/11/23 02:26:02;;;;;;;3.78;2.47;;;;;;;;;;5053636;28;20033;-66
2021/11/23 02:28:28;;;;;;;4.32;2.30;;;;;;;;;;5058925;28;20021;-66
2021/11/23 02:30:56;;;;;;;4.45;2.10;;;;;;;;;;5073106;28;20029;-65
2021/11/23 02:33:23;;;;;;;9.07;2.40;;;;;;;;;;5073516;28;20028;-65
2021/11/23 02:35:49;;;;;;;5.78;2.13;;;;;;;;;;5073150;28;20108;-65
2021/11/23 02:38:17;;;;;;;8.90;2.53;;;;;;;;;;5072990;28;20486;-66
2021/11/23 02:40:43;;;;;;;9.25;2.65;;;;;;;;;;5073108;28;20031;-65
2021/11/23 02:43:09;;;;;;;8.95;2.33;;;;;;;;;;5073049;28;20025;-66
2021/11/23 02:45:35;;;;;;;2.92;1.80;;;;;;;;;;5072041;28;20029;-67
2021/11/23 02:48:02;;;;;;;5.85;2.42;;;;;;;;;;5072883;28;20024;-67
2021/11/23 02:50:29;;;;;;;7.70;2.38;;;;;;;;;;5054977;28;20040;-66
2021/11/23 02:52:55;;;;;;;4.93;2.10;;;;;;;;;;5072846;28;20121;-66
2021/11/23 02:55:23;;;;;;;3.65;2.03;;;;;;;;;;5055160;28;20021;-66
2021/11/23 02:57:49;;;;;;;6.38;2.20;;;;;;;;;;5073149;28;20025;-66
2021/11/23 03:00:19;;;;;;;6.43;2.00;;;;;;;;;;5054914;28;20387;-66
2021/11/23 03:02:46;;;;;;;4.07;2.20;;;;;;;;;;5072903;28;20081;-67
2021/11/23 03:05:12;;;;;;;3.10;2.08;;;;;;;;;;5071817;28;20044;-67
2021/11/23 03:07:38;;;;;;;3.28;1.98;;;;;;;;;;5072741;28;20491;-66
2021/11/23 03:10:05;;;;;;;4.03;1.98;;;;;;;;;;5054727;28;20033;-66
2021/11/23 03:12:31;;;;;;;3.83;1.73;;;;;;;;;;5072714;28;20029;-66
2021/11/23 03:14:57;;;;;;;3.15;2.22;;;;;;;;;;5072866;28;20027;-66
2021/11/23 03:17:24;;;;;;;5.38;1.90;;;;;;;;;;5072536;28;20159;-66
2021/11/23 03:19:50;;;;;;;7.60;2.00;;;;;;;;;;5071693;28;20074;-65
2021/11/23 03:22:17;;;;;;;7.13;1.95;;;;;;;;;;5072653;28;20021;-65
2021/11/23 03:24:43;;;;;;;3.63;2.17;;;;;;;;;;5054557;28;20468;-66
2021/11/23 03:27:10;;;;;;;3.50;1.98;;;;;;;;;;5073599;28;20078;-66
2021/11/23 03:29:37;;;;;;;6.55;2.22;;;;;;;;;;5076830;28;20085;-65
2021/11/23 03:32:03;;;;;;;4.25;1.90;;;;;;;;;;5076699;28;20023;-65
2021/11/23 03:34:39;;;;;;;6.90;1.75;;;;;;;;;;5076859;28;20023;-66
2021/11/23 03:37:09;;;;;;;3.45;1.70;;;;;;;;;;5062731;28;20028;-66
2021/11/23 03:39:36;;;;;;;15.27;1.73;;;;;;;;;;5056871;28;20021;-67
2021/11/23 03:42:02;;;;;;;21.02;1.98;;;;;;;;;;5056482;28;20357;-65
2021/11/23 03:44:29;;;;;;;7.22;1.80;;;;;;;;;;5056523;28;20028;-66
2021/11/23 03:46:55;;;;;;;15.27;1.80;;;;;;;;;;5056364;28;20038;-66
2021/11/23 03:49:21;;;;;;;15.77;2.00;;;;;;;;;;5038565;28;20029;-67
2021/11/23 03:51:47;;;;;;;20.60;1.73;;;;;;;;;;5058302;28;20032;-67
2021/11/23 03:54:13;;;;;;;23.88;1.83;;;;;;;;;;5075860;28;20020;-66
2021/11/23 03:56:40;;;;;;;6.88;1.90;;;;;;;;;;5076098;28;20067;-67
2021/11/23 03:59:06;;;;;;;12.88;2.28;;;;;;;;;;5076356;28;20035;-66
2021/11/23 04:01:32;;;;;;;9.80;1.80;;;;;;;;;;5076221;28;20029;-65
2021/11/23 04:03:59;;;;;;;10.60;1.50;;;;;;;;;;5076062;28;20029;-65
2021/11/23 04:06:24;;;;;;;8.23;2.00;;;;;;;;;;5076016;28;20031;-65
2021/11/23 04:08:50;;;;;;;10.48;1.58;;;;;;;;;;5074658;28;20029;-65
2021/11/23 04:11:16;;;;;;;5.80;1.90;;;;;;;;;;5057876;28;20044;-66
2021/11/23 04:13:43;;;;;;;9.48;1.48;;;;;;;;;;5075927;28;20455;-65
2021/11/23 04:16:10;;;;;;;6.65;1.48;;;;;;;;;;5075704;28;20049;-66
2021/11/23 04:18:36;;;;;;;14.85;2.10;;;;;;;;;;5075931;28;20138;-66
2021/11/23 04:21:03;;;;;;;8.18;1.42;;;;;;;;;;5075551;28;20036;-68
2021/11/23 04:23:29;;;;;;;3.50;1.65;;;;;;;;;;5076055;28;20106;-66
2021/11/23 04:25:55;;;;;;;10.63;1.80;;;;;;;;;;5074557;28;20025;-66
2021/11/23 04:28:21;;;;;;;8.32;1.38;;;;;;;;;;5058136;28;20024;-64
2021/11/23 04:30:47;;;;;;;5.97;1.67;;;;;;;;;;5075288;28;20040;-66
2021/11/23 04:33:13;;;;;;;16.08;1.65;;;;;;;;;;5075406;28;20039;-66
2021/11/23 04:35:40;;;;;;;12.98;1.55;;;;;;;;;;5075655;28;20598;-65
2021/11/23 04:38:06;;;;;;;8.63;1.83;;;;;;;;;;5074810;28;20027;-65
2021/11/23 04:40:32;;;;;;;6.72;1.50;;;;;;;;;;5074202;28;20042;-65
2021/11/23 04:42:58;;;;;;;6.68;1.60;;;;;;;;;;5075333;28;20444;-67
2021/11/23 04:45:24;;;;;;;10.80;1.73;;;;;;;;;;5075525;28;20464;-66
2021/11/23 04:47:50;;;;;;;6.18;1.40;;;;;;;;;;5075140;28;20032;-65
2021/11/23 04:50:16;;;;;;;4.60;1.20;;;;;;;;;;5075122;28;20032;-66
2021/11/23 04:52:42;;;;;;;5.80;1.52;;;;;;;;;;5075027;28;20035;-66
2021/11/23 04:55:09;;;;;;;4.63;1.30;;;;;;;;;;5074761;28;20464;-66
2021/11/23 04:57:35;;;;;;;3.38;1.30;;;;;;;;;;5056271;28;20483;-66
2021/11/23 05:00:01;;;;;;;5.30;1.13;;;;;;;;;;5075144;28;20033;-66
2021/11/23 05:02:27;;;;;;;5.00;1.60;;;;;;;;;;5074922;28;20039;-67
2021/11/23 05:04:53;;;;;;;7.65;1.30;;;;;;;;;;5074662;28;20527;-66
2021/11/23 05:07:19;;;;;;;4.35;1.42;;;;;;;;;;5057050;28;20029;-65
2021/11/23 05:09:45;;;;;;;2.40;1.25;;;;;;;;;;5074729;28;20037;-66
2021/11/23 05:12:11;;;;;;;6.40;1.27;;;;;;;;;;5074801;28;20035;-65
2021/11/23 05:14:37;;;;;;;5.07;1.20;;;;;;;;;;5074659;28;20029;-66
2021/11/23 05:17:03;;;;;;;3.95;1.10;;;;;;;;;;5055167;28;20556;-65
2021/11/23 05:19:29;;;;;;;3.40;0.90;;;;;;;;;;5054647;28;20484;-66
2021/11/23 05:21:55;;;;;;;4.20;1.15;;;;;;;;;;5054529;28;20053;-65
2021/11/23 05:24:21;;;;;;;2.58;1.00;;;;;;;;;;5054616;28;20039;-65
2021/11/23 05:26:47;;;;;;;2.35;1.35;;;;;;;;;;5054667;28;20039;-66
2021/11/23 05:29:14;;;;;;;5.65;1.23;;;;;;;;;;5054413;28;20025;-66
2021/11/23 05:31:40;;;;;;;3.47;1.05;;;;;;;;;;5056763;28;20032;-65
2021/11/23 05:34:06;;;;;;;1.88;1.15;;;;;;;;;;5074336;28;20056;-65
2021/11/23 05:36:33;;;;;;;4.13;1.05;;;;;;;;;;5074316;28;20040;-65
2021/11/23 05:38:59;;;;;;;3.88;1.20;;;;;;;;;;5074156;28;20025;-66
2021/11/23 05:41:25;;;;;;;3.25;1.00;;;;;;;;;;5074370;28;20094;-64
2021/11/23 05:43:51;;;;;;;2.85;1.10;;;;;;;;;;5073916;28;20464;-66
2021/11/23 05:46:17;;;;;;;4.72;1.30;;;;;;;;;;5074275;28;20027;-65
2021/11/23 05:48:43;;;;;;;1.98;0.85;;;;;;;;;;5072985;28;20032;-65
2021/11/23 05:51:09;;;;;;;7.20;1.00;;;;;;;;;;5055095;28;20549;-65
2021/11/23 05:53:36;;;;;;;3.55;1.10;;;;;;;;;;5073699;28;20388;-66
2021/11/23 05:56:02;;;;;;;7.38;1.10;;;;;;;;;;5073835;28;20032;-65
2021/11/23 05:58:28;;;;;;;2.20;0.93;;;;;;;;;;5074033;28;20052;-66
2021/11/23 06:00:54;;;;;;;3.65;1.10;;;;;;;;;;5073643;28;20481;-65
2021/11/23 06:03:20;;;;;;;2.75;0.85;;;;;;;;;;5074170;28;20025;-65
2021/11/23 06:05:46;;;;;;;2.47;1.15;;;;;;;;;;5072364;28;20032;-65
2021/11/23 06:08:12;;;;;;;2.53;1.00;;;;;;;;;;5073530;28;20088;-65
2021/11/23 06:10:38;;;;;;;2.92;1.20;;;;;;;;;;5055493;28;20484;-65
2021/11/23 06:13:05;;;;;;;2.22;1.02;;;;;;;;;;5073692;28;20044;-66
2021/11/23 06:15:31;;;;;;;5.47;1.00;;;;;;;;;;5073659;28;20071;-65
2021/11/23 06:18:01;;;;;;;1.63;0.70;;;;;;;;;;5073627;28;20024;-65
2021/11/23 06:20:28;;;;;;;5.30;0.98;;;;;;;;;;5073538;28;20107;-65
2021/11/23 06:23:01;;;;;;;3.03;1.00;;;;;;;;;;5072471;28;20021;-65
2021/11/23 06:25:27;;;;;;;9.93;0.90;;;;;;;;;;5073282;28;20111;-65
2021/11/23 06:27:54;;;;;;;2.60;0.82;;;;;;;;;;5073473;28;20106;-64
2021/11/23 06:30:20;;;;;;;1.75;0.90;;;;;;;;;;5073239;28;20045;-65
2021/11/23 06:32:47;;;;;;;3.20;0.95;;;;;;;;;;5073182;28;20489;-65
2021/11/23 06:35:13;;;;;;;14.88;1.60;;;;;;;;;;5073309;28;20044;-65
2021/11/23 06:37:39;;;;;;;4.25;1.15;;;;;;;;;;5071974;28;20032;-65
2021/11/23 06:40:06;;;;;;;7.25;1.30;;;;;;;;;;5073152;28;20016;-65
2021/11/23 06:42:33;;;;;;;11.25;1.52;;;;;;;;;;5055057;28;20071;-68
2021/11/23 06:44:59;;;;;;;8.63;1.05;;;;;;;;;;5073058;28;20124;-67
2021/11/23 06:47:25;;;;;;;9.88;1.48;;;;;;;;;;5055167;28;20081;-68
2021/11/23 06:49:51;;;;;;;3.50;0.75;;;;;;;;;;5072867;28;20036;-67
2021/11/23 06:52:18;;;;;;;7.10;0.70;;;;;;;;;;5073186;28;20111;-68
2021/11/23 06:54:45;;;;;;;4.95;0.98;;;;;;;;;;5071748;28;20021;-67
2021/11/23 06:57:11;;;;;;;2.38;0.80;;;;;;;;;;5072818;28;20020;-68
2021/11/23 06:59:37;;;;;;;8.15;0.90;;;;;;;;;;5072597;28;20043;-68
2021/11/23 07:02:03;;;;;;;11.88;0.90;;;;;;;;;;5072663;28;20098;-68
2021/11/23 07:04:29;;;;;;;2.17;0.80;;;;;;;;;;5072965;28;20029;-68
2021/11/23 07:06:55;;;;;;;1.05;0.70;;;;;;;;;;5072519;28;20035;-68
2021/11/23 07:09:21;;;;;;;3.25;0.80;;;;;;;;;;5072735;28;20032;-68
2021/11/23 07:11:47;;;;;;;2.28;0.75;;;;;;;;;;5071529;28;20028;-68
2021/11/23 07:14:13;;;;;;;5.43;0.82;;;;;;;;;;5072626;28;20024;-68
2021/11/23 07:16:40;;;;;;;1.60;0.70;;;;;;;;;;5071910;28;20049;-68
2021/11/23 07:19:06;;;;;;;2.80;0.65;;;;;;;;;;5072340;28;20024;-68
2021/11/23 07:21:32;;;;;;;3.70;0.50;;;;;;;;;;5072370;28;20103;-67
2021/11/23 07:23:58;;;;;;;4.35;0.70;;;;;;;;;;5071987;28;20396;-67
2021/11/23 07:26:25;;;;;;;3.00;0.63;;;;;;;;;;5053895;28;20036;-67
2021/11/23 07:28:51;;;;;;;4.18;0.75;;;;;;;;;;5070653;28;20028;-67
2021/11/23 07:31:16;;;;;;;3.33;0.68;;;;;;;;;;5071638;28;20141;-67
2021/11/23 07:33:43;;;;;;;9.13;0.90;;;;;;;;;;5071945;28;20036;-67
2021/11/23 07:36:09;;;;;;;5.15;0.70;;;;;;;;;;5055759;28;20040;-67
2021/11/23 07:38:35;;;;;;;4.32;0.75;;;;;;;;;;5072986;28;20036;-67
2021/11/23 07:41:01;;;;;;;6.03;0.77;;;;;;;;;;5054779;28;20028;-67
2021/11/23 07:43:27;;;;;;;2.33;0.80;;;;;;;;;;5071780;28;20021;-67
2021/11/23 07:45:52;;;;;;;4.95;0.70;;;;;;;;;;5072918;28;20072;-67
2021/11/23 07:48:19;;;;;;;4.32;0.80;;;;;;;;;;5071855;28;20028;-67
2021/11/23 07:50:45;;;;;;;5.80;0.60;;;;;;;;;;5072034;28;20032;-67
2021/11/23 07:53:11;;;;;;;4.60;0.60;;;;;;;;;;5071506;28;20414;-67
2021/11/23 07:55:37;;;;;;;4.07;0.77;;;;;;;;;;5071883;28;20388;-67
2021/11/23 07:58:03;;;;;;;2.00;0.60;;;;;;;;;;5053878;28;20036;-67
2021/11/23 08:00:30;;;;;;;4.55;0.60;;;;;;;;;;5071912;28;20027;-67
2021/11/23 08:02:56;;;;;;;7.38;0.60;;;;;;;;;;5052847;28;20028;-67
2021/11/23 08:05:22;;;;;;;1.95;0.60;;;;;;;;;;5071796;28;20090;-68
2021/11/23 08:07:48;;;;;;;1.65;0.50;;;;;;;;;;5071721;28;20024;-67
2021/11/23 08:10:14;;;;;;;3.30;0.90;;;;;;;;;;5071829;28;20036;-69
2021/11/23 08:12:41;;;;;;;3.15;0.73;;;;;;;;;;5071806;28;20032;-67
2021/11/23 08:15:07;;;;;;;6.10;0.80;;;;;;;;;;5075228;28;20028;-68
2021/11/23 08:17:33;;;;;;;7.18;1.02;;;;;;;;;;5074439;28;20036;-65
2021/11/23 08:20:00;;;;;;;20.85;1.10;;;;;;;;;;5075334;28;20025;-66
2021/11/23 08:22:26;;;;;;;6.80;0.93;;;;;;;;;;5057292;28;20055;-65
2021/11/23 08:24:52;;;;;;;9.18;0.90;;;;;;;;;;5075266;28;20040;-66
2021/11/23 08:27:18;;;;;;;7.47;1.10;;;;;;;;;;5075316;28;20082;-65
2021/11/23 08:29:44;;;;;;;19.35;1.40;;;;;;;;;;5075325;28;20033;-65
2021/11/23 08:32:11;;;;;;;8.57;1.38;;;;;;;;;;5075435;28;20033;-65
2021/11/23 08:34:36;;;;;;;13.85;0.93;;;;;;;;;;5074473;28;20478;-66
2021/11/23 08:37:03;;;;;;;7.45;1.35;;;;;;;;;;5074944;28;20032;-65
2021/11/23 08:39:29;;;;;;;6.57;1.20;;;;;;;;;;5075259;28;20021;-67
2021/11/23 08:41:55;;;;;;;6.38;1.00;;;;;;;;;;5075236;28;20025;-65
2021/11/23 08:44:22;;;;;;;8.18;1.63;;;;;;;;;;5074819;28;20107;-67
2021/11/23 08:46:48;;;;;;;6.72;1.13;;;;;;;;;;5074595;28;20033;-65
2021/11/23 08:49:14;;;;;;;6.40;1.25;;;;;;;;;;5073740;28;20024;-66
2021/11/23 08:51:41;;;;;;;6.10;1.20;;;;;;;;;;5074776;28;20036;-66
2021/11/23 08:54:08;;;;;;;5.35;1.25;;;;;;;;;;5074366;28;20024;-67
2021/11/23 08:56:45;;;;;;;10.50;1.73;;;;;;;;;;5074712;28;20028;-68
2021/11/23 08:59:13;;;;;;;19.88;2.08;;;;;;;;;;5074645;28;20024;-68
2021/11/23 09:01:39;;;;;;;26.13;1.70;;;;;;;;;;5074708;28;20067;-68
2021/11/23 09:04:05;;;;;;;63.50;2.75;;;;;;;;;;5074733;28;20074;-65
2021/11/23 09:06:35;;;;;;;30.75;2.42;;;;;;;;;;5074187;28;20102;-65
2021/11/23 09:09:04;;;;;;;30.15;2.83;;;;;;;;;;5056458;28;20032;-65
2021/11/23 09:11:30;;;;;;;33.83;2.65;;;;;;;;;;5074455;28;20045;-66
2021/11/23 09:13:56;;;;;;;33.22;2.22;;;;;;;;;;5074246;28;20483;-65
2021/11/23 09:16:22;;;;;;;10.45;2.08;;;;;;;;;;5074149;28;20053;-65
2021/11/23 09:18:49;;;;;;;25.67;2.55;;;;;;;;;;5074555;28;20017;-65
2021/11/23 09:21:15;;;;;;;24.88;2.40;;;;;;;;;;5055547;28;20082;-65
2021/11/23 09:23:41;;;;;;;24.02;1.98;;;;;;;;;;5074508;28;20035;-65
2021/11/23 09:26:09;;;;;;;28.63;2.42;;;;;;;;;;5074067;28;20036;-65
2021/11/23 09:28:35;;;;;;;21.73;2.33;;;;;;;;;;5056503;28;20024;-65
2021/11/23 09:31:01;;;;;;;14.07;2.20;;;;;;;;;;5074060;28;20051;-65
2021/11/23 09:33:27;;;;;;;12.45;2.20;;;;;;;;;;5056206;28;20341;-65
2021/11/23 09:35:54;;;;;;;18.88;2.13;;;;;;;;;;5074209;28;20609;-65
2021/11/23 09:38:20;;;;;;;9.18;1.83;;;;;;;;;;5072621;28;20444;-65
2021/11/23 09:40:46;;;;;;;8.70;1.95;;;;;;;;;;5073789;28;20119;-65
2021/11/23 09:43:12;;;;;;;11.18;2.60;;;;;;;;;;5074001;28;20082;-65
2021/11/23 09:45:38;;;;;;;12.07;1.85;;;;;;;;;;5074141;28;20115;-65
2021/11/23 09:48:05;;;;;;;13.55;2.22;;;;;;;;;;5074247;28;20096;-65
2021/11/23 09:50:31;;;;;;;11.57;2.00;;;;;;;;;;5073560;28;20032;-65
2021/11/23 09:52:57;;;;;;;14.85;2.20;;;;;;;;;;5073622;28;20341;-65
2021/11/23 09:55:23;;;;;;;16.98;2.08;;;;;;;;;;5072663;28;20029;-65
2021/11/23 09:57:49;;;;;;;10.25;2.10;;;;;;;;;;5073412;28;20037;-65
2021/11/23 10:00:24;;;;;;;17.35;2.15;;;;;;;;;;5073529;28;20032;-65
2021/11/23 10:02:50;;;;;;;11.88;1.88;;;;;;;;;;5073536;28;20020;-65
2021/11/23 10:05:16;;;;;;;10.52;1.83;;;;;;;;;;5073422;28;20048;-65
2021/11/23 10:07:43;;;;;;;7.28;1.55;;;;;;;;;;5055438;28;20028;-64
2021/11/23 10:10:14;;;;;;;8.30;1.70;;;;;;;;;;5073251;28;20390;-66
2021/11/23 10:12:49;;;;;;;6.95;1.90;;;;;;;;;;5072141;28;20017;-65
2021/11/23 10:15:20;;;;;;;8.88;1.90;;;;;;;;;;5073046;28;20510;-65
2021/11/23 10:17:48;;;;;;;9.05;1.45;;;;;;;;;;5055102;28;20048;-65
2021/11/23 10:20:44;;;;;;;18.17;1.88;;;;;;;;;;5073115;28;20029;-65
2021/11/23 10:23:16;;;;;;;16.70;2.00;;;;;;;;;;5056661;28;20384;-65
2021/11/23 10:25:43;;;;;;;19.87;1.70;;;;;;;;;;5073128;28;20402;-65
2021/11/23 10:28:09;;;;;;;14.95;1.83;;;;;;;;;;5072999;28;20246;-65
2021/11/23 10:30:39;;;;;;;10.45;1.83;;;;;;;;;;5071382;28;20094;-65
2021/11/23 10:33:05;;;;;;;12.75;1.88;;;;;;;;;;5072896;28;20045;-65
2021/11/23 10:35:31;;;;;;;10.32;1.70;;;;;;;;;;5072404;28;20024;-65
2021/11/23 10:37:57;;;;;;;13.40;1.75;;;;;;;;;;5073100;28;20032;-65
2021/11/23 10:40:27;;;;;;;20.05;1.73;;;;;;;;;;5072831;28;20104;-65
2021/11/23 10:42:55;;;;;;;12.38;1.80;;;;;;;;;;5072799;28;20476;-65
2021/11/23 10:45:21;;;;;;;14.68;1.67;;;;;;;;;;5072725;28;20471;-64
2021/11/23 10:47:47;;;;;;;21.42;1.90;;;;;;;;;;5043410;28;20025;-65
2021/11/23 10:50:14;;;;;;;15.05;1.85;;;;;;;;;;5053021;28;20033;-64
2021/11/23 10:52:44;;;;;;;16.50;1.58;;;;;;;;;;5052746;28;20456;-65
2021/11/23 10:55:30;;;;;;;10.82;1.90;;;;;;;;;;5072105;28;20016;-65
2021/11/23 10:57:58;;;;;;;17.55;1.80;;;;;;;;;;5072623;28;20479;-65
2021/11/23 11:00:24;;;;;;;7.35;1.73;;;;;;;;;;5054362;28;20028;-65
2021/11/23 11:02:54;;;;;;;17.35;1.30;;;;;;;;;;5072469;28;20078;-65
2021/11/23 11:05:21;;;;;;;11.57;1.40;;;;;;;;;;5053477;28;20028;-65
2021/11/23 11:07:47;;;;;;;7.47;1.35;;;;;;;;;;5072454;28;20073;-65
2021/11/23 11:10:14;;;;;;;9.43;1.27;;;;;;;;;;5072451;28;20032;-65
2021/11/23 11:12:40;;;;;;;7.88;1.67;;;;;;;;;;5072575;28;20109;-65
2021/11/23 11:15:12;;;;;;;12.00;1.30;;;;;;;;;;5069563;28;20218;-65
2021/11/23 11:17:39;;;;;;;16.05;1.63;;;;;;;;;;5071937;28;20441;-64
2021/11/23 11:20:07;;;;;;;7.30;1.15;;;;;;;;;;5065958;28;20041;-65
2021/11/23 11:22:33;;;;;;;7.32;1.27;;;;;;;;;;5057664;28;20036;-65
2021/11/23 11:25:33;;;;;;;9.95;1.42;;;;;;;;;;5065997;28;20036;-64
2021/11/23 11:27:52;;;;;;;7.43;1.25;;;;;;;;;;5069960;28;20031;-65
2021/11/23 11:30:46;;;;;;;7.47;1.13;;;;;;;;;;5072205;28;20024;-64
2021/11/23 11:33:14;;;;;;;6.30;1.40;;;;;;;;;;5069082;28;20040;-65
2021/11/23 11:35:40;;;;;;;2.42;0.90;;;;;;;;;;5072300;28;20028;-65
2021/11/23 11:38:09;;;;;;;4.72;1.15;;;;;;;;;;5071363;28;20036;-65
2021/11/23 11:40:38;;;;;;;5.03;1.05;;;;;;;;;;5072090;28;20130;-64
2021/11/23 11:43:05;;;;;;;9.13;1.40;;;;;;;;;;5053810;28;20025;-65
2021/11/23 11:45:47;;;;;;;6.47;1.23;;;;;;;;;;5072025;28;20103;-65
2021/11/23 11:48:23;;;;;;;5.25;1.00;;;;;;;;;;5073104;28;20024;-65
2021/11/23 11:51:07;;;;;;;6.32;0.90;;;;;;;;;;5075945;28;20078;-65
2021/11/23 11:53:38;;;;;;;5.65;0.98;;;;;;;;;;5075706;28;20016;-65
2021/11/23 11:56:05;;;;;;;6.03;0.95;;;;;;;;;;5057003;28;20036;-65
2021/11/23 11:58:44;;;;;;;9.77;1.02;;;;;;;;;;5076015;28;20089;-65
2021/11/23 12:01:20;;;;;;;6.57;1.10;;;;;;;;;;5075916;28;20035;-65
2021/11/23 12:03:59;;;;;;;5.18;1.00;;;;;;;;;;5075756;28;20017;-65
2021/11/23 12:06:45;;;;;;;4.95;1.30;;;;;;;;;;5075564;28;20020;-64
2021/11/23 12:09:27;;;;;;;2.83;0.85;;;;;;;;;;5075490;28;20099;-65
2021/11/23 12:11:54;;;;;;;3.80;0.93;;;;;;;;;;5075639;28;20036;-64
2021/11/23 12:14:24;;;;;;;4.18;0.90;;;;;;;;;;5074501;28;20273;-66
2021/11/23 12:16:53;;;;;;;6.78;1.10;;;;;;;;;;5075147;28;20044;-65
2021/11/23 12:19:29;;;;;;;7.43;0.80;;;;;;;;;;5075457;28;20037;-65
2021/11/23 12:21:57;;;;;;;5.55;1.00;;;;;;;;;;5057300;28;20069;-65
2021/11/23 12:24:27;;;;;;;9.98;1.17;;;;;;;;;;5075289;28;20379;-66
2021/11/23 12:26:54;;;;;;;14.95;1.23;;;;;;;;;;5075344;28;20028;-67
2021/11/23 12:29:25;;;;;;;20.27;1.23;;;;;;;;;;5075133;28;20157;-65
2021/11/23 12:31:51;;;;;;;16.15;1.00;;;;;;;;;;5056497;28;20146;-64
2021/11/23 12:34:17;;;;;;;20.10;1.35;;;;;;;;;;5057094;28;20520;-65
2021/11/23 12:36:47;;;;;;;12.35;0.95;;;;;;;;;;5074823;28;20036;-65
2021/11/23 12:39:18;;;;;;;10.20;1.27;;;;;;;;;;5074839;28;20058;-65
2021/11/23 12:41:45;;;;;;;14.15;0.98;;;;;;;;;;5056973;28;20040;-66
2021/11/23 12:44:22;;;;;;;10.93;1.05;;;;;;;;;;5054768;28;20476;-66
2021/11/23 12:47:00;;;;;;;9.65;0.90;;;;;;;;;;5053539;28;20103;-65
2021/11/23 12:49:26;;;;;;;11.30;1.30;;;;;;;;;;5054814;28;20033;-66
2021/11/23 12:51:53;;;;;;;13.48;1.20;;;;;;;;;;5036756;28;20480;-64
2021/11/23 12:54:23;;;;;;;10.95;1.35;;;;;;;;;;5067075;28;20430;-65
2021/11/23 12:56:51;;;;;;;6.68;1.08;;;;;;;;;;5074543;28;20082;-65
2021/11/23 12:59:37;;;;;;;13.82;1.13;;;;;;;;;;5074070;28;20023;-64
2021/11/23 13:02:24;;;;;;;10.77;0.80;;;;;;;;;;5056663;28;20483;-64
2021/11/23 13:04:50;;;;;;;7.15;1.05;;;;;;;;;;5054287;28;20035;-63
2021/11/23 13:07:16;;;;;;;5.20;0.82;;;;;;;;;;5036303;28;20036;-64
2021/11/23 13:10:12;;;;;;;5.18;0.93;;;;;;;;;;5054375;28;20029;-65
2021/11/23 13:12:40;;;;;;;7.65;0.77;;;;;;;;;;5024555;28;20037;-66
2021/11/23 13:15:08;;;;;;;4.78;0.75;;;;;;;;;;5054586;28;20025;-66
2021/11/23 13:17:52;;;;;;;7.20;0.80;;;;;;;;;;5036968;28;20435;-64
2021/11/23 13:20:26;;;;;;;11.50;0.90;;;;;;;;;;5074075;28;20432;-64
2021/11/23 13:22:55;;;;;;;5.70;0.80;;;;;;;;;;5074287;28;20033;-64
2021/11/23 13:25:22;;;;;;;4.70;0.90;;;;;;;;;;5074325;28;20052;-64
2021/11/23 13:27:51;;;;;;;9.30;1.05;;;;;;;;;;5073781;28;20020;-65
2021/11/23 13:30:38;;;;;;;8.25;1.10;;;;;;;;;;5073868;28;20028;-65
2021/11/23 13:33:13;;;;;;;5.10;0.65;;;;;;;;;;5073871;28;20024;-64
2021/11/23 13:36:00;;;;;;;5.95;1.20;;;;;;;;;;5072797;28;20418;-63
2021/11/23 13:38:32;;;;;;;6.28;0.90;;;;;;;;;;5073575;28;20033;-65
2021/11/23 13:40:58;;;;;;;4.95;0.75;;;;;;;;;;5073652;28;20376;-65
2021/11/23 13:43:24;;;;;;;4.15;0.70;;;;;;;;;;5073606;28;20096;-65
2021/11/23 13:46:00;;;;;;;2.67;0.63;;;;;;;;;;5073330;28;20060;-66
2021/11/23 13:48:26;;;;;;;6.45;0.98;;;;;;;;;;5073665;28;20151;-66
2021/11/23 13:51:11;;;;;;;5.97;0.70;;;;;;;;;;5072344;28;20178;-67
2021/11/23 13:53:57;;;;;;;5.80;0.90;;;;;;;;;;5055323;28;20395;-66
2021/11/23 13:56:25;;;;;;;2.55;0.65;;;;;;;;;;5073550;28;20055;-66
2021/11/23 13:58:52;;;;;;;8.13;0.73;;;;;;;;;;5055414;28;20032;-66
2021/11/23 14:01:18;;;;;;;4.07;0.70;;;;;;;;;;5055320;28;20489;-66
2021/11/23 14:03:44;;;;;;;3.85;0.80;;;;;;;;;;5073265;28;20511;-66
2021/11/23 14:06:12;;;;;;;4.35;0.80;;;;;;;;;;5073504;28;20066;-67
2021/11/23 14:08:38;;;;;;;4.05;0.80;;;;;;;;;;5060904;28;20123;-67
2021/11/23 14:11:06;;;;;;;6.05;0.77;;;;;;;;;;5034520;28;20061;-66
2021/11/23 14:13:35;;;;;;;12.25;1.00;;;;;;;;;;5053103;28;20026;-67
2021/11/23 14:16:04;;;;;;;3.75;0.82;;;;;;;;;;5052982;28;20124;-67
2021/11/23 14:18:32;;;;;;;5.90;0.70;;;;;;;;;;5053205;28;20096;-65
2021/11/23 14:21:14;;;;;;;2.25;0.70;;;;;;;;;;5052861;28;20025;-65
2021/11/23 14:23:43;;;;;;;4.03;0.70;;;;;;;;;;5053205;28;20025;-65
2021/11/23 14:26:09;;;;;;;5.22;1.02;;;;;;;;;;5064420;28;20529;-65
2021/11/23 14:28:37;;;;;;;5.18;0.60;;;;;;;;;;5073236;28;20024;-64
2021/11/23 14:31:03;;;;;;;8.27;0.80;;;;;;;;;;5072781;28;20364;-66
2021/11/23 14:33:30;;;;;;;19.05;1.33;;;;;;;;;;5072849;28;20459;-64
2021/11/23 14:35:57;;;;;;;24.60;1.08;;;;;;;;;;5072691;28;20036;-64
2021/11/23 14:38:23;;;;;;;20.92;1.40;;;;;;;;;;5054741;28;20376;-65
2021/11/23 14:40:49;;;;;;;12.43;1.13;;;;;;;;;;5071200;28;20035;-65
2021/11/23 14:43:15;;;;;;;21.85;1.23;;;;;;;;;;5065013;28;20028;-64
2021/11/23 14:45:41;;;;;;;6.95;0.82;;;;;;;;;;5054838;28;20030;-64